F/V L'arche D'allian — FHGO — position and weather

sailwx.info

Track history (hours):
 
Tides and Currents Weather Stations Pressure Air Temp Water Temp Dewpoint Dewpoint Depression Visibility Wind Speed Wind Dir Waves Ship Positions

F/V L'arche D'allian

Last reported at 2017-Sep-25 14:46 UTC. Time now 2017-Sep-25 15:23 UTC.
Position N 47°59' W 004°40'.

Length 20 m.

Type: Fishing. MMSI: 227311000.

Date/timePositionNaut miles runAvg speedWind from/ knotsBaromVisibWave heightAir tempDewpointWater temp
2017-Sep-25 14:46N 47°59' W 004°40'3 9.7
2017-Sep-25 14:30N 47°59' W 004°43'510.1
2017-Sep-25 14:00N 47°58' W 004°51'510.3
2017-Sep-25 13:30N 47°58' W 004°59'910.5
2017-Sep-25 12:38N 47°56' W 005°12'2 4.1
2017-Sep-25 12:05N 47°55' W 005°15'1 8.5
2017-Sep-25 11:59N 47°54' W 005°15'0 0.5
2017-Sep-25 11:11N 47°54' W 005°16'3 7.0
2017-Sep-25 10:41N 47°51' W 005°13'2 9.9
2017-Sep-25 10:28N 47°51' W 005°10'5 9.7
2017-Sep-25 10:00N 47°50' W 005°03'4 8.6
2017-Sep-25 09:29N 47°49' W 004°56'1 2.0
2017-Sep-25 09:00N 47°48' W 004°56'1 1.9
2017-Sep-25 08:30N 47°47' W 004°56'2 1.9
2017-Sep-25 07:19N 47°50' W 004°56'0 0.7
2017-Sep-25 07:00N 47°50' W 004°56'1 2.2
2017-Sep-25 06:30N 47°49' W 004°56'1 1.5
2017-Sep-25 05:53N 47°48' W 004°55'2 1.5
2017-Sep-25 04:47N 47°49' W 004°55'2 7.1
2017-Sep-25 04:26N 47°51' W 004°52'410.0
2017-Sep-25 04:00N 47°53' W 004°47'510.1
2017-Sep-25 03:30N 47°56' W 004°41'510.4
2017-Sep-25 03:00N 47°59' W 004°34'  
2017-Sep-19 11:13N 47°54' W 004°46'9 9.2
2017-Sep-19 10:15N 47°50' W 004°58'2 2.7
2017-Sep-19 09:38N 47°48' W 004°59'3 2.0
2017-Sep-19 08:24N 47°51' W 004°60'0 1.3
2017-Sep-19 08:00N 47°50' W 004°59'1 2.4
2017-Sep-19 07:30N 47°49' W 004°59'1 1.7
2017-Sep-19 07:00N 47°48' W 004°59'2 1.8
2017-Sep-19 06:06N 47°50' W 004°59'0 0.7
2017-Sep-19 06:00N 47°50' W 004°58'1 1.1
2017-Sep-19 05:30N 47°49' W 004°58'1 2.0
2017-Sep-19 05:00N 47°48' W 004°58'1 1.1
2017-Sep-19 03:42N 47°50' W 004°57'1 6.9
2017-Sep-19 03:29N 47°51' W 004°56'5 9.8
2017-Sep-19 03:00N 47°53' W 004°49'5 9.9
2017-Sep-19 02:30N 47°56' W 004°43'510.0
2017-Sep-19 01:59N 47°58' W 004°37'4 0.3
2017-Sep-18 12:58N 48°01' W 004°32'710.5
2017-Sep-18 12:15N 47°56' W 004°40'310.6
2017-Sep-18 12:00N 47°54' W 004°44'510.6
2017-Sep-18 11:29N 47°51' W 004°50'4 5.2
2017-Sep-18 10:41N 47°49' W 004°56'1 1.1
2017-Sep-18 10:06N 47°49' W 004°57'1 9.4
2017-Sep-18 10:00N 47°48' W 004°57'2 1.2
2017-Sep-18 08:42N 47°50' W 004°57'0 1.5
2017-Sep-18 08:26N 47°50' W 004°57'1 2.2
2017-Sep-18 08:00N 47°49' W 004°57'1 0.5
2017-Sep-18 06:35N 47°49' W 004°56'0 0.6
2017-Sep-18 06:30N 47°49' W 004°56'0 0.7
2017-Sep-18 06:01N 47°49' W 004°56'1 1.8
2017-Sep-18 05:29N 47°48' W 004°56'1 1.7
2017-Sep-18 04:59N 47°48' W 004°55'2 1.9
2017-Sep-18 04:01N 47°49' W 004°55'0 0.0
2017-Sep-18 04:00N 47°49' W 004°55'4 8.9
2017-Sep-18 03:30N 47°52' W 004°50'510.1
2017-Sep-18 03:00N 47°55' W 004°43'510.1
2017-Sep-18 02:28N 47°58' W 004°37'5 9.0
2017-Sep-18 01:58N 48°01' W 004°32'3 0.1
2017-Sep-16 09:07N 47°59' W 004°35'310.6
2017-Sep-16 08:49N 47°57' W 004°39'310.6
2017-Sep-16 08:30N 47°55' W 004°43'510.5
2017-Sep-16 08:00N 47°53' W 004°50'7 7.0
2017-Sep-16 07:03N 47°51' W 004°59'1 8.7
2017-Sep-16 06:57N 47°50' W 004°59'1 1.7
2017-Sep-16 06:30N 47°49' W 004°58'2 4.2
2017-Sep-16 05:58N 47°51' W 004°55'510.4
2017-Sep-16 05:30N 47°53' W 004°49'510.4
2017-Sep-16 05:00N 47°56' W 004°42'510.1
2017-Sep-16 04:31N 47°59' W 004°36'  
Track history (hours):
 
Tides and Currents Weather Stations Pressure Air Temp Water Temp Dewpoint Dewpoint Depression Visibility Wind Speed Wind Dir Waves Ship Positions

F/V L'arche D'allian

Last reported at 2017-Sep-25 14:46 UTC. Time now 2017-Sep-25 15:23 UTC.
Position N 47°59' W 004°40'.

Length 20 m.

Type: Fishing. MMSI: 227311000.

Date/timePositionNaut miles runAvg speedWind from/ knotsBaromVisibWave heightAir tempDewpointWater temp
2017-Sep-25 14:46N 47°59' W 004°40'3 9.7
2017-Sep-25 14:30N 47°59' W 004°43'510.1
2017-Sep-25 14:00N 47°58' W 004°51'510.3
2017-Sep-25 13:30N 47°58' W 004°59'910.5
2017-Sep-25 12:38N 47°56' W 005°12'2 4.1
2017-Sep-25 12:05N 47°55' W 005°15'1 8.5
2017-Sep-25 11:59N 47°54' W 005°15'0 0.5
2017-Sep-25 11:11N 47°54' W 005°16'3 7.0
2017-Sep-25 10:41N 47°51' W 005°13'2 9.9
2017-Sep-25 10:28N 47°51' W 005°10'5 9.7
2017-Sep-25 10:00N 47°50' W 005°03'4 8.6
2017-Sep-25 09:29N 47°49' W 004°56'1 2.0
2017-Sep-25 09:00N 47°48' W 004°56'1 1.9
2017-Sep-25 08:30N 47°47' W 004°56'2 1.9
2017-Sep-25 07:19N 47°50' W 004°56'0 0.7
2017-Sep-25 07:00N 47°50' W 004°56'1 2.2
2017-Sep-25 06:30N 47°49' W 004°56'1 1.5
2017-Sep-25 05:53N 47°48' W 004°55'2 1.5
2017-Sep-25 04:47N 47°49' W 004°55'2 7.1
2017-Sep-25 04:26N 47°51' W 004°52'410.0
2017-Sep-25 04:00N 47°53' W 004°47'510.1
2017-Sep-25 03:30N 47°56' W 004°41'510.4
2017-Sep-25 03:00N 47°59' W 004°34'  
2017-Sep-19 11:13N 47°54' W 004°46'9 9.2
2017-Sep-19 10:15N 47°50' W 004°58'2 2.7
2017-Sep-19 09:38N 47°48' W 004°59'3 2.0
2017-Sep-19 08:24N 47°51' W 004°60'0 1.3
2017-Sep-19 08:00N 47°50' W 004°59'1 2.4
2017-Sep-19 07:30N 47°49' W 004°59'1 1.7
2017-Sep-19 07:00N 47°48' W 004°59'2 1.8
2017-Sep-19 06:06N 47°50' W 004°59'0 0.7
2017-Sep-19 06:00N 47°50' W 004°58'1 1.1
2017-Sep-19 05:30N 47°49' W 004°58'1 2.0
2017-Sep-19 05:00N 47°48' W 004°58'1 1.1
2017-Sep-19 03:42N 47°50' W 004°57'1 6.9
2017-Sep-19 03:29N 47°51' W 004°56'5 9.8
2017-Sep-19 03:00N 47°53' W 004°49'5 9.9
2017-Sep-19 02:30N 47°56' W 004°43'510.0
2017-Sep-19 01:59N 47°58' W 004°37'4 0.3
2017-Sep-18 12:58N 48°01' W 004°32'710.5
2017-Sep-18 12:15N 47°56' W 004°40'310.6
2017-Sep-18 12:00N 47°54' W 004°44'510.6
2017-Sep-18 11:29N 47°51' W 004°50'4 5.2
2017-Sep-18 10:41N 47°49' W 004°56'1 1.1
2017-Sep-18 10:06N 47°49' W 004°57'1 9.4
2017-Sep-18 10:00N 47°48' W 004°57'2 1.2
2017-Sep-18 08:42N 47°50' W 004°57'0 1.5
2017-Sep-18 08:26N 47°50' W 004°57'1 2.2
2017-Sep-18 08:00N 47°49' W 004°57'1 0.5
2017-Sep-18 06:35N 47°49' W 004°56'0 0.6
2017-Sep-18 06:30N 47°49' W 004°56'0 0.7
2017-Sep-18 06:01N 47°49' W 004°56'1 1.8
2017-Sep-18 05:29N 47°48' W 004°56'1 1.7
2017-Sep-18 04:59N 47°48' W 004°55'2 1.9
2017-Sep-18 04:01N 47°49' W 004°55'0 0.0
2017-Sep-18 04:00N 47°49' W 004°55'4 8.9
2017-Sep-18 03:30N 47°52' W 004°50'510.1
2017-Sep-18 03:00N 47°55' W 004°43'510.1
2017-Sep-18 02:28N 47°58' W 004°37'5 9.0
2017-Sep-18 01:58N 48°01' W 004°32'3 0.1
2017-Sep-16 09:07N 47°59' W 004°35'310.6
2017-Sep-16 08:49N 47°57' W 004°39'310.6
2017-Sep-16 08:30N 47°55' W 004°43'510.5
2017-Sep-16 08:00N 47°53' W 004°50'7 7.0
2017-Sep-16 07:03N 47°51' W 004°59'1 8.7
2017-Sep-16 06:57N 47°50' W 004°59'1 1.7
2017-Sep-16 06:30N 47°49' W 004°58'2 4.2
2017-Sep-16 05:58N 47°51' W 004°55'510.4
2017-Sep-16 05:30N 47°53' W 004°49'510.4
2017-Sep-16 05:00N 47°56' W 004°42'510.1
2017-Sep-16 04:31N 47°59' W 004°36'  

Dump ship's entire track history